createdAt,value
2023-02-15T00:01:58.771Z,98.20
2023-02-15T00:04:45.330Z,98.20
2023-02-15T00:07:12.167Z,98.40
2023-02-15T00:09:38.843Z,98.40
2023-02-15T00:12:05.649Z,98.40
2023-02-15T00:14:32.397Z,98.30
2023-02-15T00:17:00.878Z,98.40
2023-02-15T00:19:27.782Z,98.30
2023-02-15T00:21:54.460Z,98.10
2023-02-15T00:24:21.378Z,98.00
2023-02-15T00:26:49.119Z,98.20
2023-02-15T00:29:17.180Z,98.20
2023-02-15T00:31:43.980Z,98.20
2023-02-15T00:34:14.772Z,98.20
2023-02-15T00:36:41.548Z,98.10
2023-02-15T00:39:08.574Z,98.10
2023-02-15T00:41:35.654Z,98.20
2023-02-15T00:44:02.480Z,98.40
2023-02-15T00:46:29.213Z,98.30
2023-02-15T00:48:55.928Z,98.20
2023-02-15T00:51:22.732Z,98.50
2023-02-15T00:53:49.608Z,98.60
2023-02-15T00:56:16.345Z,98.50
2023-02-15T00:58:43.789Z,98.40
2023-02-15T01:01:13.306Z,98.50
2023-02-15T01:03:42.474Z,98.50
2023-02-15T01:06:10.176Z,98.60
2023-02-15T01:08:37.059Z,98.60
2023-02-15T01:11:13.506Z,98.60
2023-02-15T01:13:40.830Z,98.50
2023-02-15T01:16:08.439Z,98.40
2023-02-15T01:18:36.383Z,98.50
2023-02-15T01:21:11.719Z,98.40
2023-02-15T01:23:38.546Z,98.40
2023-02-15T01:26:05.269Z,98.20
2023-02-15T01:28:33.264Z,98.00
2023-02-15T01:31:00.350Z,98.00
2023-02-15T01:33:27.255Z,98.10
2023-02-15T01:36:00.201Z,98.20
2023-02-15T01:38:27.369Z,98.20
2023-02-15T01:40:55.094Z,98.20
2023-02-15T01:43:21.852Z,98.10
2023-02-15T01:45:50.781Z,98.20
2023-02-15T01:48:26.464Z,98.30
2023-02-15T01:50:59.694Z,98.40
2023-02-15T01:53:35.493Z,98.40
2023-02-15T01:56:10.807Z,98.50
2023-02-15T01:58:38.081Z,98.50
2023-02-15T02:01:08.562Z,98.30
2023-02-15T02:03:58.933Z,98.20
2023-02-15T02:06:27.623Z,98.20
2023-02-15T02:08:55.630Z,98.20
2023-02-15T02:11:22.601Z,98.20
2023-02-15T02:13:50.611Z,98.00
2023-02-15T02:16:38.080Z,97.90
2023-02-15T02:19:26.899Z,97.90
2023-02-15T02:22:24.012Z,97.90
2023-02-15T02:24:53.544Z,97.80
2023-02-15T02:27:42.503Z,98.10
2023-02-15T02:30:34.157Z,98.20
2023-02-15T02:33:31.218Z,98.50
2023-02-15T02:36:01.030Z,98.50
2023-02-15T02:38:49.429Z,98.40
2023-02-15T02:41:25.490Z,98.40
2023-02-15T02:44:03.746Z,98.70
2023-02-15T02:46:49.275Z,99.00
2023-02-15T02:49:16.021Z,98.90
2023-02-15T02:51:42.844Z,98.90
2023-02-15T02:54:09.761Z,99.10
2023-02-15T02:56:49.922Z,99.10
2023-02-15T02:59:30.356Z,99.00
2023-02-15T03:02:07.093Z,98.90
2023-02-15T03:04:37.817Z,98.60
2023-02-15T03:07:08.880Z,98.30
2023-02-15T03:09:45.219Z,98.30
2023-02-15T03:12:22.536Z,98.40
2023-02-15T03:14:56.040Z,98.50
2023-02-15T03:17:27.366Z,98.30
2023-02-15T03:19:58.536Z,98.30
2023-02-15T03:22:31.934Z,98.20
2023-02-15T03:25:26.426Z,98.00
2023-02-15T03:27:56.686Z,98.10
2023-02-15T03:30:24.909Z,98.10
2023-02-15T03:32:52.978Z,98.20
2023-02-15T03:35:24.684Z,98.40
2023-02-15T03:38:01.487Z,98.30
2023-02-15T03:40:54.123Z,98.50
2023-02-15T03:43:57.659Z,98.40
2023-02-15T03:46:44.729Z,98.40
2023-02-15T03:49:50.118Z,98.60
2023-02-15T03:52:18.112Z,98.70
2023-02-15T03:54:46.703Z,98.70
2023-02-15T03:57:38.642Z,98.80
2023-02-15T04:00:28.708Z,98.90
2023-02-15T04:03:04.216Z,98.90
2023-02-15T04:05:30.960Z,98.90
2023-02-15T04:07:57.688Z,98.90
2023-02-15T04:10:43.085Z,98.90
2023-02-15T04:13:09.813Z,99.00
2023-02-15T04:15:54.858Z,98.90
2023-02-15T04:18:21.731Z,99.00
2023-02-15T04:21:06.873Z,99.00
2023-02-15T04:23:52.554Z,99.10
2023-02-15T04:26:19.332Z,98.90
2023-02-15T04:28:46.095Z,99.00
2023-02-15T04:31:12.925Z,98.90
2023-02-15T04:33:39.698Z,98.80
2023-02-15T04:36:06.508Z,98.90
2023-02-15T04:38:33.198Z,99.00
2023-02-15T04:40:59.922Z,99.00
2023-02-15T04:43:26.660Z,99.00
2023-02-15T04:45:53.504Z,99.00
2023-02-15T04:48:20.205Z,99.00
2023-02-15T04:50:46.940Z,99.00
2023-02-15T04:53:14.022Z,99.10
2023-02-15T04:55:40.765Z,99.30
2023-02-15T04:58:07.478Z,99.30
2023-02-15T05:00:34.316Z,99.40
2023-02-15T05:03:01.000Z,99.40
2023-02-15T05:05:27.794Z,99.20
2023-02-15T05:07:54.825Z,98.80
2023-02-15T05:10:21.605Z,98.60
2023-02-15T05:12:48.350Z,98.40
2023-02-15T05:15:15.143Z,98.20
2023-02-15T05:17:41.944Z,98.20
2023-02-15T05:20:09.118Z,98.10
2023-02-15T05:22:35.829Z,98.00
2023-02-15T05:25:21.330Z,98.00
2023-02-15T05:28:06.641Z,98.00
2023-02-15T05:30:33.732Z,98.20
2023-02-15T05:33:00.565Z,98.20
2023-02-15T05:35:27.396Z,98.30
2023-02-15T05:37:54.165Z,98.40
2023-02-15T05:40:20.909Z,98.30
2023-02-15T05:42:47.602Z,98.60
2023-02-15T05:45:14.305Z,98.60
2023-02-15T05:47:40.984Z,98.70
2023-02-15T05:50:08.515Z,98.70
2023-02-15T05:52:35.988Z,98.60
2023-02-15T05:55:03.615Z,98.60
2023-02-15T05:57:30.306Z,98.80
2023-02-15T05:59:57.415Z,99.00
2023-02-15T06:02:24.171Z,99.00
2023-02-15T06:04:50.926Z,99.00
2023-02-15T06:07:17.638Z,98.90
2023-02-15T06:09:44.427Z,99.00
2023-02-15T06:12:11.141Z,99.10
2023-02-15T06:14:37.886Z,99.20
2023-02-15T06:17:04.686Z,99.20
2023-02-15T06:19:31.405Z,99.20
2023-02-15T06:21:58.074Z,99.20
2023-02-15T06:24:24.834Z,99.20
2023-02-15T06:26:51.793Z,99.30
2023-02-15T06:29:18.532Z,99.40
2023-02-15T06:31:45.390Z,99.50
2023-02-15T06:34:12.178Z,99.60
2023-02-15T06:36:39.034Z,99.70
2023-02-15T06:39:05.762Z,99.30
2023-02-15T06:41:32.499Z,99.10
2023-02-15T06:43:59.235Z,99.00
2023-02-15T06:46:26.110Z,98.90
2023-02-15T06:48:53.040Z,98.80
2023-02-15T06:51:19.854Z,98.80
2023-02-15T06:53:46.641Z,98.60
2023-02-15T06:56:13.994Z,98.80
2023-02-15T06:58:41.840Z,98.80
2023-02-15T07:01:10.201Z,98.90
2023-02-15T07:03:37.188Z,98.90
2023-02-15T07:06:07.082Z,98.90
2023-02-15T07:08:33.803Z,99.00
2023-02-15T07:11:20.585Z,99.20
2023-02-15T07:13:48.048Z,99.10
2023-02-15T07:16:15.048Z,99.10
2023-02-15T07:18:41.872Z,99.10
2023-02-15T07:21:09.001Z,99.20
2023-02-15T07:23:37.074Z,99.20
2023-02-15T07:26:04.198Z,99.20
2023-02-15T07:28:31.440Z,99.70
2023-02-15T07:30:58.861Z,99.40
2023-02-15T07:33:25.604Z,99.30
2023-02-15T07:35:58.779Z,99.30
2023-02-15T07:38:27.162Z,99.20
2023-02-15T07:41:00.147Z,99.20
2023-02-15T07:43:27.459Z,99.20
2023-02-15T07:45:54.177Z,99.30
2023-02-15T07:48:21.160Z,99.40
2023-02-15T07:50:48.586Z,99.30
2023-02-15T07:53:15.320Z,99.50
2023-02-15T07:55:42.408Z,99.60
2023-02-15T07:58:09.190Z,99.60
2023-02-15T08:00:56.054Z,99.60
2023-02-15T08:03:30.201Z,99.70
2023-02-15T08:05:59.792Z,99.90
2023-02-15T08:08:32.577Z,99.90
2023-02-15T08:11:26.432Z,99.90
2023-02-15T08:13:55.288Z,99.90
2023-02-15T08:16:48.214Z,99.90
2023-02-15T08:19:24.111Z,99.90
2023-02-15T08:21:58.698Z,99.90
2023-02-15T08:24:28.563Z,99.90
2023-02-15T08:26:55.908Z,99.90
2023-02-15T08:29:24.949Z,99.90
2023-02-15T08:31:55.118Z,99.90
2023-02-15T08:34:22.301Z,99.90
2023-02-15T08:36:49.037Z,99.90
2023-02-15T08:39:16.379Z,99.90
2023-02-15T08:41:45.798Z,99.90
2023-02-15T08:44:13.185Z,99.90
2023-02-15T08:46:42.631Z,99.90
2023-02-15T08:49:10.634Z,99.90
2023-02-15T08:51:39.478Z,99.90
2023-02-15T08:54:09.606Z,99.90
2023-02-15T08:56:40.359Z,99.90
2023-02-15T08:59:12.391Z,99.90
2023-02-15T09:01:39.233Z,99.90
2023-02-15T09:04:10.717Z,99.90
2023-02-15T09:06:39.403Z,99.90
2023-02-15T09:09:06.901Z,99.90
2023-02-15T09:11:57.810Z,99.90
2023-02-15T09:14:27.583Z,99.90
2023-02-15T09:16:55.506Z,99.90
2023-02-15T09:19:24.004Z,99.90
2023-02-15T09:21:51.121Z,99.90
2023-02-15T09:24:18.662Z,99.90
2023-02-15T09:26:47.779Z,99.90
2023-02-15T09:29:15.593Z,99.90
2023-02-15T09:31:48.150Z,99.90
2023-02-15T09:34:19.528Z,99.90
2023-02-15T09:36:47.618Z,99.90
2023-02-15T09:39:20.754Z,99.90
2023-02-15T09:42:10.075Z,99.90
2023-02-15T09:45:22.705Z,99.90
2023-02-15T09:48:16.373Z,99.90
2023-02-15T09:51:23.936Z,99.90
2023-02-15T09:54:19.849Z,99.90
2023-02-15T09:56:53.353Z,99.90
2023-02-15T09:59:29.224Z,99.90
2023-02-15T10:02:25.489Z,99.90
2023-02-15T10:05:12.214Z,99.90
2023-02-15T10:08:09.398Z,99.90
2023-02-15T10:10:42.453Z,99.90
2023-02-15T10:13:45.831Z,99.90
2023-02-15T10:16:34.026Z,99.90
2023-02-15T10:19:33.647Z,99.90
2023-02-15T10:22:16.772Z,99.90
2023-02-15T10:25:08.116Z,99.90
2023-02-15T10:27:39.677Z,99.90
2023-02-15T10:30:19.867Z,99.90
2023-02-15T10:33:32.520Z,99.90
2023-02-15T10:36:18.110Z,99.90
2023-02-15T10:39:19.718Z,99.90
2023-02-15T10:41:54.158Z,99.90
2023-02-15T10:44:39.465Z,99.90
2023-02-15T10:47:12.978Z,99.80
2023-02-15T10:50:12.851Z,99.30
2023-02-15T10:53:05.377Z,99.40
2023-02-15T10:55:50.182Z,98.90
2023-02-15T10:58:35.655Z,98.60
2023-02-15T11:01:14.228Z,98.30
2023-02-15T11:03:54.788Z,98.10
2023-02-15T11:06:26.801Z,98.00
2023-02-15T11:09:10.073Z,97.80
2023-02-15T11:11:45.863Z,97.60
2023-02-15T11:14:30.618Z,97.30
2023-02-15T11:17:05.487Z,97.50
2023-02-15T11:19:36.595Z,97.10
2023-02-15T11:22:06.744Z,96.90
2023-02-15T11:24:41.268Z,96.80
2023-02-15T11:27:13.825Z,96.70
2023-02-15T11:30:02.015Z,96.50
2023-02-15T11:32:36.201Z,95.80
2023-02-15T11:35:12.491Z,95.60
2023-02-15T11:38:06.804Z,95.40
2023-02-15T11:40:50.305Z,95.20
2023-02-15T11:43:40.853Z,95.00
2023-02-15T11:46:12.408Z,95.00
2023-02-15T11:48:40.240Z,94.70
2023-02-15T11:51:12.151Z,94.70
2023-02-15T11:53:39.866Z,94.60
2023-02-15T11:56:17.887Z,94.70
2023-02-15T11:58:50.136Z,94.50
2023-02-15T12:01:26.071Z,94.40
2023-02-15T12:04:00.422Z,94.20
2023-02-15T12:06:36.926Z,94.10
2023-02-15T12:09:23.701Z,93.90
2023-02-15T12:11:50.811Z,93.70
2023-02-15T12:14:17.679Z,93.70
2023-02-15T12:16:54.423Z,93.50
2023-02-15T12:19:24.152Z,93.30
2023-02-15T12:21:53.998Z,93.20
2023-02-15T12:24:28.521Z,93.00
2023-02-15T12:27:03.068Z,92.80
2023-02-15T12:29:42.082Z,92.60
2023-02-15T12:32:19.248Z,92.80
2023-02-15T12:34:48.164Z,92.30
2023-02-15T12:37:24.669Z,92.10
2023-02-15T12:40:00.194Z,92.10
2023-02-15T12:42:30.188Z,91.90
2023-02-15T12:45:20.132Z,91.90
2023-02-15T12:47:46.855Z,91.80
2023-02-15T12:50:22.166Z,91.70
2023-02-15T12:52:52.122Z,91.50
2023-02-15T12:55:25.161Z,91.20
2023-02-15T12:58:19.200Z,91.20
2023-02-15T13:00:46.838Z,91.10
2023-02-15T13:03:22.629Z,91.00
2023-02-15T13:05:56.521Z,90.90
2023-02-15T13:08:29.777Z,90.90
2023-02-15T13:11:04.727Z,90.70
2023-02-15T13:13:37.343Z,90.80
2023-02-15T13:16:10.692Z,90.70
2023-02-15T13:18:48.095Z,90.60
2023-02-15T13:21:24.920Z,90.60
2023-02-15T13:23:57.952Z,90.50
2023-02-15T13:26:30.605Z,90.30
2023-02-15T13:29:02.087Z,90.30
2023-02-15T13:31:33.169Z,90.00
2023-02-15T13:34:21.605Z,90.00
2023-02-15T13:37:06.400Z,90.00
2023-02-15T13:39:42.500Z,89.80
2023-02-15T13:42:41.200Z,89.60
2023-02-15T13:45:28.414Z,89.00
2023-02-15T13:48:00.998Z,88.90
2023-02-15T13:50:39.777Z,89.10
2023-02-15T13:53:31.170Z,88.80
2023-02-15T13:56:26.589Z,88.40
2023-02-15T13:59:14.773Z,88.40
2023-02-15T14:01:59.522Z,88.20
2023-02-15T14:04:41.177Z,88.60
2023-02-15T14:07:31.597Z,87.20
2023-02-15T14:10:35.983Z,87.60
2023-02-15T14:13:05.881Z,87.00
2023-02-15T14:15:49.173Z,86.40
2023-02-15T14:18:37.297Z,86.40
2023-02-15T14:21:18.024Z,86.70
2023-02-15T14:24:16.646Z,86.70
2023-02-15T14:26:51.050Z,86.20
2023-02-15T14:29:36.995Z,86.40
2023-02-15T14:32:14.561Z,86.40
2023-02-15T14:34:52.879Z,86.50
2023-02-15T14:37:54.966Z,87.40
2023-02-15T14:40:52.310Z,86.90
2023-02-15T14:43:34.329Z,87.30
2023-02-15T14:46:22.727Z,87.50
2023-02-15T14:48:51.602Z,87.70
2023-02-15T14:51:50.491Z,87.90
2023-02-15T14:54:17.171Z,88.40
2023-02-15T14:56:45.278Z,88.70
2023-02-15T14:59:17.245Z,88.80
2023-02-15T15:02:12.082Z,89.20
2023-02-15T15:04:55.774Z,89.50
2023-02-15T15:07:36.194Z,90.00
2023-02-15T15:10:17.904Z,90.30
2023-02-15T15:12:49.099Z,90.40
2023-02-15T15:15:45.074Z,90.60
2023-02-15T15:18:52.040Z,90.80
2023-02-15T15:21:49.691Z,90.90
2023-02-15T15:24:38.433Z,91.10
2023-02-15T15:27:44.095Z,91.20
2023-02-15T15:30:19.898Z,91.20
2023-02-15T15:32:55.812Z,91.40
2023-02-15T15:35:53.677Z,91.50
2023-02-15T15:38:35.718Z,91.70
2023-02-15T15:41:24.319Z,91.60
2023-02-15T15:44:28.589Z,92.00
2023-02-15T15:47:30.089Z,92.10
2023-02-15T15:50:00.456Z,92.20
2023-02-15T15:52:29.593Z,92.20
2023-02-15T15:55:03.143Z,92.30
2023-02-15T15:57:39.214Z,92.30
2023-02-15T16:00:22.775Z,92.30
2023-02-15T16:02:57.033Z,92.40
2023-02-15T16:05:23.956Z,92.40
2023-02-15T16:07:51.043Z,92.50
2023-02-15T16:10:27.186Z,92.60
2023-02-15T16:12:55.756Z,92.70
2023-02-15T16:15:31.488Z,92.60
2023-02-15T16:18:00.620Z,92.80
2023-02-15T16:20:37.820Z,92.80
2023-02-15T16:23:28.790Z,92.90
2023-02-15T16:26:01.814Z,92.90
2023-02-15T16:28:29.614Z,92.90
2023-02-15T16:31:07.701Z,93.00
2023-02-15T16:33:39.863Z,93.10
2023-02-15T16:36:11.067Z,93.20
2023-02-15T16:38:43.940Z,93.20
2023-02-15T16:41:17.781Z,93.30
2023-02-15T16:43:49.208Z,93.40
2023-02-15T16:46:42.954Z,93.40
2023-02-15T16:49:24.115Z,93.60
2023-02-15T16:52:02.722Z,93.80
2023-02-15T16:54:32.344Z,93.90
2023-02-15T16:56:59.255Z,94.00
2023-02-15T16:59:31.877Z,94.00
2023-02-15T17:01:59.094Z,94.10
2023-02-15T17:04:32.367Z,94.30
2023-02-15T17:07:15.071Z,94.90
2023-02-15T17:09:56.398Z,95.00
2023-02-15T17:12:56.071Z,95.00
2023-02-15T17:15:33.652Z,95.10
2023-02-15T17:18:20.427Z,95.30
2023-02-15T17:20:49.626Z,95.30
2023-02-15T17:23:33.321Z,95.40
2023-02-15T17:26:21.803Z,95.50
2023-02-15T17:29:03.870Z,95.60
2023-02-15T17:31:33.347Z,95.70
2023-02-15T17:34:02.172Z,95.80
2023-02-15T17:36:31.710Z,95.80
2023-02-15T17:38:58.602Z,95.80
2023-02-15T17:41:25.960Z,95.90
2023-02-15T17:43:52.852Z,96.00
2023-02-15T17:46:23.200Z,96.20
2023-02-15T17:48:52.775Z,96.30
2023-02-15T17:51:21.609Z,96.40
2023-02-15T17:54:07.865Z,96.40
2023-02-15T17:56:36.006Z,96.30
2023-02-15T17:59:07.468Z,96.30
2023-02-15T18:01:55.618Z,96.30
2023-02-15T18:04:41.848Z,96.50
2023-02-15T18:07:31.589Z,96.70
2023-02-15T18:10:16.913Z,96.80
2023-02-15T18:12:44.239Z,96.90
2023-02-15T18:15:13.895Z,97.10
2023-02-15T18:17:44.942Z,97.00
2023-02-15T18:20:24.938Z,97.00
2023-02-15T18:22:52.437Z,97.00
2023-02-15T18:25:21.201Z,97.00
2023-02-15T18:27:48.008Z,97.20
2023-02-15T18:30:22.003Z,97.10
2023-02-15T18:32:51.522Z,97.20
2023-02-15T18:35:24.731Z,97.20
2023-02-15T18:37:53.266Z,97.30
2023-02-15T18:40:26.546Z,97.40
2023-02-15T18:42:54.300Z,97.50
2023-02-15T18:45:25.518Z,97.50
2023-02-15T18:47:52.350Z,97.50
2023-02-15T18:50:20.967Z,97.40
2023-02-15T18:52:52.848Z,97.40
2023-02-15T18:55:25.552Z,97.30
2023-02-15T18:57:54.674Z,97.30
2023-02-15T19:00:30.228Z,97.60
2023-02-15T19:02:57.417Z,97.50
2023-02-15T19:05:27.566Z,97.60
2023-02-15T19:07:54.979Z,97.70
2023-02-15T19:10:25.225Z,97.60
2023-02-15T19:12:52.968Z,97.60
2023-02-15T19:15:21.766Z,97.70
2023-02-15T19:17:49.292Z,97.70
2023-02-15T19:20:22.094Z,97.50
2023-02-15T19:22:51.636Z,97.50
2023-02-15T19:25:27.130Z,97.60
2023-02-15T19:27:55.079Z,98.00
2023-02-15T19:30:28.599Z,97.80
2023-02-15T19:32:59.426Z,97.70
2023-02-15T19:35:33.370Z,97.80
2023-02-15T19:38:03.113Z,97.90
2023-02-15T19:40:33.112Z,97.90
2023-02-15T19:43:00.818Z,98.00
2023-02-15T19:45:30.381Z,98.10
2023-02-15T19:47:57.821Z,98.30
2023-02-15T19:50:28.461Z,98.20
2023-02-15T19:52:55.603Z,98.20
2023-02-15T19:55:30.728Z,98.20
2023-02-15T19:57:58.906Z,98.10
2023-02-15T20:00:31.682Z,98.10
2023-02-15T20:02:59.653Z,98.20
2023-02-15T20:05:29.153Z,98.20
2023-02-15T20:07:56.889Z,98.30
2023-02-15T20:10:32.866Z,98.60
2023-02-15T20:12:59.897Z,98.00
2023-02-15T20:15:33.354Z,98.30
2023-02-15T20:18:04.281Z,98.20
2023-02-15T20:20:39.043Z,98.10
2023-02-15T20:23:07.595Z,98.10
2023-02-15T20:25:34.618Z,98.20
2023-02-15T20:28:01.955Z,98.20
2023-02-15T20:30:31.596Z,98.20
2023-02-15T20:32:59.128Z,98.20
2023-02-15T20:35:28.838Z,98.20
2023-02-15T20:37:59.681Z,98.10
2023-02-15T20:40:35.256Z,98.10
2023-02-15T20:43:02.856Z,98.10
2023-02-15T20:45:32.593Z,98.40
2023-02-15T20:48:02.157Z,98.00
2023-02-15T20:50:32.654Z,98.20
2023-02-15T20:53:02.925Z,98.40
2023-02-15T20:55:31.530Z,98.60
2023-02-15T20:57:59.677Z,98.60
2023-02-15T21:00:29.167Z,98.50
2023-02-15T21:02:59.166Z,98.40
2023-02-15T21:05:30.259Z,98.40
2023-02-15T21:07:57.445Z,98.60
2023-02-15T21:10:34.819Z,98.70
2023-02-15T21:13:03.137Z,98.60
2023-02-15T21:15:39.846Z,98.60
2023-02-15T21:18:15.725Z,98.80
2023-02-15T21:20:46.819Z,98.60
2023-02-15T21:23:17.432Z,98.50
2023-02-15T21:25:44.829Z,98.60
2023-02-15T21:28:20.660Z,98.60
2023-02-15T21:30:49.194Z,98.50
2023-02-15T21:33:16.858Z,98.40
2023-02-15T21:35:52.855Z,98.60
2023-02-15T21:38:23.050Z,98.60
2023-02-15T21:40:50.355Z,98.50
2023-02-15T21:43:43.351Z,98.50
2023-02-15T21:46:35.267Z,98.70
2023-02-15T21:49:03.019Z,98.50
2023-02-15T21:51:49.411Z,98.70
2023-02-15T21:54:21.558Z,98.70
2023-02-15T21:56:50.992Z,98.60
2023-02-15T21:59:18.874Z,98.60
2023-02-15T22:01:49.024Z,98.60
2023-02-15T22:04:23.504Z,98.70
2023-02-15T22:06:50.370Z,98.80
2023-02-15T22:09:23.537Z,98.80
2023-02-15T22:11:51.864Z,98.90
2023-02-15T22:14:41.110Z,99.00
2023-02-15T22:17:19.869Z,99.10
2023-02-15T22:19:48.904Z,99.40
2023-02-15T22:22:16.798Z,99.20
2023-02-15T22:24:44.353Z,99.20
2023-02-15T22:27:27.977Z,99.30
2023-02-15T22:29:55.636Z,99.30
2023-02-15T22:32:25.551Z,99.40
2023-02-15T22:34:53.940Z,99.40
2023-02-15T22:37:21.300Z,99.40
2023-02-15T22:39:48.109Z,99.20
2023-02-15T22:42:27.413Z,99.20
2023-02-15T22:44:58.398Z,99.40
2023-02-15T22:47:28.094Z,99.60
2023-02-15T22:49:54.948Z,99.90
2023-02-15T22:52:22.106Z,99.90
2023-02-15T22:54:48.846Z,99.90
2023-02-15T22:57:24.060Z,99.60
2023-02-15T22:59:50.836Z,99.70
2023-02-15T23:02:17.695Z,99.90
2023-02-15T23:04:45.333Z,99.90
2023-02-15T23:07:18.227Z,99.90
2023-02-15T23:09:45.702Z,99.90
2023-02-15T23:12:52.610Z,99.80
2023-02-15T23:15:19.702Z,99.80
2023-02-15T23:17:46.420Z,99.80
2023-02-15T23:20:16.350Z,99.80
2023-02-15T23:22:43.979Z,99.90
2023-02-15T23:25:11.999Z,99.90
2023-02-15T23:27:57.070Z,99.90
2023-02-15T23:30:24.526Z,99.80
2023-02-15T23:32:54.125Z,99.60
2023-02-15T23:35:21.179Z,99.60
2023-02-15T23:37:48.671Z,99.60
2023-02-15T23:40:39.297Z,99.70
2023-02-15T23:43:11.548Z,99.70
2023-02-15T23:45:39.442Z,99.80
2023-02-15T23:48:38.841Z,99.80
2023-02-15T23:51:06.598Z,99.80
2023-02-15T23:53:33.458Z,99.90
2023-02-15T23:56:00.836Z,99.90
2023-02-15T23:58:35.436Z,99.80
